Main page
METAR-TAF:

METAR-TAF

Airports :

Sukkur, Pakistan

Sukkur Airport

latitude: 27-43-19N, longitude: 068-47-31E, elevation: 60 m

Current weather observation

The report was made 37 minutes ago, at 20:00 UTC
Calm wind
Temperature 28°C
Humidity 45%
Pressure 1005 hPa
Visibility: 4000 m
haze

METAR: OPSK 302000Z 00000KT 4000 HZ NSC 28/15 Q1005 NOSIG

Time: 01:37 (20:37 UTC)

Forecast

The report was made 5 hours and 7 minutes ago, at 15:30 UTC
Forecast valid from 30 at 18 UTC to 01 at 18 UTC
Wind 5 kt from the Northwest
Visibility: 4000 m
haze
Temporary
from 01 at 02 UTC to 01 at 06 UTC
Wind 5 kt from the North
Visibility: 3000 m
haze
From 01 at 0600 UTC
Wind 5 kt from the South/Southeast
Visibility: 4000 m
haze

TAF: OPSK 301530Z 3018/0118 31005KT 4000 HZ NSC TEMPO 0102/0106 36005KT 3000 HZ NSC FM010600 16005KT 4000 HZ NSC

Weather observations and forecasts of more than 4000 airports (METAR and TAF reports).

The available stations are represented by yellow and red dots on the map.

Hover mouse over dot to see the name of the station.

Then click to see weather observations and forecasts.

To change the map : click on the green buttons with a black cross to zoom in, on the green button with a dash to zoom out, or on the green arrows for adjacent maps.


METAR-TAF: